createdAt,value
2023-04-04T00:00:28.938Z,100004.06
2023-04-04T00:06:31.163Z,100001.47
2023-04-04T00:12:34.417Z,99981.06
2023-04-04T00:18:37.900Z,99981.59
2023-04-04T00:24:41.000Z,99994.69
2023-04-04T00:30:44.700Z,99979.75
2023-04-04T00:36:48.056Z,99981.06
2023-04-04T00:42:53.857Z,99956.28
2023-04-04T00:49:01.847Z,99940.31
2023-04-04T00:55:04.873Z,99975.88
2023-04-04T01:01:11.978Z,99996.31
2023-04-04T01:07:14.277Z,99947.16
2023-04-04T01:13:17.885Z,99926.84
2023-04-04T01:19:49.841Z,99944.09
2023-04-04T01:26:05.448Z,99954.03
2023-04-04T01:32:43.498Z,99946.19
2023-04-04T01:39:06.905Z,99956.63
2023-04-04T01:45:10.729Z,99945.88
2023-04-04T01:51:16.354Z,99955.59
2023-04-04T01:57:19.563Z,99934.16
2023-04-04T02:03:24.197Z,99899.13
2023-04-04T02:09:28.979Z,99874.63
2023-04-04T02:15:41.798Z,99894.19
2023-04-04T02:21:46.182Z,99898.91
2023-04-04T02:27:51.129Z,99905.41
2023-04-04T02:33:57.962Z,99893.91
2023-04-04T02:40:00.801Z,99878.50
2023-04-04T02:46:14.364Z,99837.25
2023-04-04T02:52:33.791Z,99867.00
2023-04-04T02:58:44.479Z,99872.53
2023-04-04T03:04:46.898Z,99900.72
2023-04-04T03:10:49.166Z,99894.97
2023-04-04T03:16:52.612Z,99881.13
2023-04-04T03:22:55.219Z,99873.03
2023-04-04T03:28:58.904Z,99906.47
2023-04-04T03:35:02.325Z,99886.09
2023-04-04T03:41:06.915Z,99869.63
2023-04-04T03:47:09.179Z,99878.00
2023-04-04T03:53:15.414Z,99873.31
2023-04-04T03:59:18.631Z,99884.28
2023-04-04T04:05:23.403Z,99869.88
2023-04-04T04:11:29.922Z,99876.41
